createdAt,value
2019-02-12T00:00:43.217Z,21.00
2019-02-12T00:03:15.911Z,21.00
2019-02-12T00:05:48.440Z,21.00
2019-02-12T00:08:20.923Z,21.00
2019-02-12T00:10:53.521Z,21.00
2019-02-12T00:13:25.885Z,20.90
2019-02-12T00:15:58.692Z,20.90
2019-02-12T00:18:31.327Z,21.00
2019-02-12T00:21:08.904Z,21.00
2019-02-12T00:23:37.757Z,20.90
2019-02-12T00:26:10.347Z,20.90
2019-02-12T00:28:42.761Z,20.90
2019-02-12T00:31:15.255Z,20.90
2019-02-12T00:33:47.706Z,20.90
2019-02-12T00:36:20.121Z,20.90
2019-02-12T00:38:52.486Z,20.80
2019-02-12T00:41:24.884Z,20.90
2019-02-12T00:43:57.379Z,20.90
2019-02-12T00:46:29.965Z,20.80
2019-02-12T00:49:02.329Z,20.80
2019-02-12T00:51:34.689Z,20.80
2019-02-12T00:54:07.086Z,20.80
2019-02-12T00:56:39.966Z,20.80
2019-02-12T00:59:12.362Z,20.80
2019-02-12T01:01:44.774Z,20.70
2019-02-12T01:04:17.234Z,20.70
2019-02-12T01:06:49.749Z,20.70
2019-02-12T01:09:22.230Z,20.70
2019-02-12T01:11:54.622Z,20.70
2019-02-12T01:14:27.165Z,20.70
2019-02-12T01:16:59.818Z,20.70
2019-02-12T01:19:32.202Z,20.60
2019-02-12T01:22:04.624Z,20.70
2019-02-12T01:24:36.993Z,20.70
2019-02-12T01:27:09.611Z,20.60
2019-02-12T01:29:41.989Z,20.60
2019-02-12T01:32:14.403Z,20.60
2019-02-12T01:34:46.854Z,20.60
2019-02-12T01:37:19.248Z,20.60
2019-02-12T01:40:02.706Z,20.60
2019-02-12T01:42:35.270Z,20.50
2019-02-12T01:45:15.400Z,20.50
2019-02-12T01:47:49.576Z,20.50
2019-02-12T01:50:21.946Z,20.50
2019-02-12T01:52:54.466Z,20.40
2019-02-12T01:55:26.926Z,20.40
2019-02-12T01:57:59.764Z,20.40
2019-02-12T02:00:37.099Z,20.40
2019-02-12T02:03:09.671Z,20.40
2019-02-12T02:05:43.706Z,20.40
2019-02-12T02:08:17.051Z,20.40
2019-02-12T02:10:50.581Z,20.40
2019-02-12T02:13:23.253Z,20.30
2019-02-12T02:15:55.606Z,20.30
2019-02-12T02:21:22.025Z,20.30
2019-02-12T02:23:54.833Z,20.30
2019-02-12T02:26:27.314Z,20.30
2019-02-12T02:29:00.031Z,20.30
2019-02-12T02:31:32.514Z,20.20
2019-02-12T02:34:04.944Z,20.20
2019-02-12T02:36:37.535Z,20.20
2019-02-12T02:39:10.311Z,20.20
2019-02-12T02:41:42.795Z,20.60
2019-02-12T02:44:15.179Z,21.40
2019-02-12T02:46:48.015Z,22.20
2019-02-12T02:49:20.620Z,22.90
2019-02-12T02:51:54.154Z,23.50
2019-02-12T02:54:26.706Z,23.90
2019-02-12T02:56:59.437Z,24.40
2019-02-12T02:59:32.979Z,24.80
2019-02-12T03:02:05.647Z,25.10
2019-02-12T03:04:38.177Z,25.40
2019-02-12T03:07:10.554Z,25.70
2019-02-12T03:09:43.045Z,26.00
2019-02-12T03:12:15.777Z,26.20
2019-02-12T03:14:48.177Z,26.40
2019-02-12T03:17:20.551Z,26.70
2019-02-12T03:19:53.357Z,26.90
2019-02-12T03:22:28.807Z,26.20
2019-02-12T03:25:01.313Z,25.50
2019-02-12T03:27:33.953Z,24.90
2019-02-12T03:30:10.889Z,24.40
2019-02-12T03:32:43.492Z,24.10
2019-02-12T03:35:16.079Z,23.80
2019-02-12T03:37:48.441Z,23.60
2019-02-12T03:40:20.847Z,23.40
2019-02-12T03:42:53.437Z,23.20
2019-02-12T03:45:26.458Z,23.10
2019-02-12T03:47:59.107Z,22.80
2019-02-12T03:50:31.813Z,22.80
2019-02-12T03:53:04.451Z,22.70
2019-02-12T03:55:36.761Z,22.60
2019-02-12T03:58:09.421Z,22.50
2019-02-12T04:00:43.158Z,22.40
2019-02-12T04:03:15.764Z,22.40
2019-02-12T04:05:48.183Z,22.30
2019-02-12T04:08:20.541Z,22.20
2019-02-12T04:10:53.046Z,22.10
2019-02-12T04:13:25.583Z,22.00
2019-02-12T04:15:58.148Z,22.00
2019-02-12T04:18:30.664Z,21.90
2019-02-12T04:21:03.447Z,21.80
2019-02-12T04:23:35.823Z,21.70
2019-02-12T04:26:09.347Z,21.60
2019-02-12T04:28:41.778Z,21.50
2019-02-12T04:31:14.676Z,21.40
2019-02-12T04:33:47.167Z,21.40
2019-02-12T04:36:19.683Z,21.30
2019-02-12T04:38:52.124Z,21.30
2019-02-12T04:41:24.982Z,21.20
2019-02-12T04:43:57.353Z,21.20
2019-02-12T04:46:29.758Z,21.10
2019-02-12T04:49:02.620Z,21.70
2019-02-12T04:51:35.292Z,22.40
2019-02-12T04:54:07.670Z,23.10
2019-02-12T04:56:40.278Z,23.70
2019-02-12T04:59:12.663Z,24.10
2019-02-12T05:01:45.201Z,24.50
2019-02-12T05:04:17.589Z,24.90
2019-02-12T05:06:50.211Z,25.30
2019-02-12T05:09:22.687Z,25.60
2019-02-12T05:11:55.397Z,25.90
2019-02-12T05:14:27.879Z,26.20
2019-02-12T05:17:00.426Z,25.80
2019-02-12T05:19:33.158Z,25.10
2019-02-12T05:22:05.946Z,24.40
2019-02-12T05:24:38.487Z,24.00
2019-02-12T05:27:10.965Z,23.60
2019-02-12T05:29:43.446Z,23.30
2019-02-12T05:32:16.277Z,23.10
2019-02-12T05:34:48.666Z,23.00
2019-02-12T05:37:21.277Z,22.80
2019-02-12T05:39:53.720Z,22.70
2019-02-12T05:42:26.121Z,22.60
2019-02-12T05:44:58.498Z,22.50
2019-02-12T05:47:31.026Z,22.30
2019-02-12T05:50:03.904Z,22.30
2019-02-12T05:52:36.748Z,22.20
2019-02-12T05:55:09.386Z,22.80
2019-02-12T05:57:41.814Z,23.50
2019-02-12T06:00:17.476Z,24.20
2019-02-12T06:02:49.879Z,24.70
2019-02-12T06:05:26.929Z,24.90
2019-02-12T06:07:59.491Z,24.30
2019-02-12T06:10:31.973Z,23.70
2019-02-12T06:13:04.393Z,23.30
2019-02-12T06:15:36.875Z,23.00
2019-02-12T06:18:09.321Z,22.80
2019-02-12T06:20:41.768Z,22.60
2019-02-12T06:23:14.420Z,22.50
2019-02-12T06:25:46.796Z,22.30
2019-02-12T06:28:19.336Z,22.20
2019-02-12T06:30:51.812Z,22.00
2019-02-12T06:33:24.764Z,22.00
2019-02-12T06:35:57.337Z,22.80
2019-02-12T06:38:29.756Z,23.50
2019-02-12T06:41:02.178Z,24.10
2019-02-12T06:43:34.809Z,24.60
2019-02-12T06:46:07.282Z,24.60
2019-02-12T06:48:39.724Z,24.00
2019-02-12T06:51:12.458Z,23.50
2019-02-12T06:53:45.019Z,23.10
2019-02-12T06:56:17.392Z,22.80
2019-02-12T06:58:49.901Z,22.60
2019-02-12T07:01:22.389Z,22.50
2019-02-12T07:03:57.305Z,22.30
2019-02-12T07:06:41.114Z,22.20
2019-02-12T07:09:35.622Z,22.00
2019-02-12T07:12:16.340Z,21.90
2019-02-12T07:14:51.288Z,21.80
2019-02-12T07:17:26.228Z,22.20
2019-02-12T07:20:06.695Z,23.00
2019-02-12T07:22:56.242Z,23.70
2019-02-12T07:25:46.154Z,24.20
2019-02-12T07:28:29.640Z,24.70
2019-02-12T07:31:34.779Z,24.00
2019-02-12T07:34:25.176Z,23.50
2019-02-12T07:37:19.118Z,22.90
2019-02-12T07:39:56.874Z,22.70
2019-02-12T07:42:37.430Z,22.40
2019-02-12T07:45:18.255Z,22.20
2019-02-12T07:47:58.758Z,22.00
2019-02-12T07:50:48.967Z,21.90
2019-02-12T07:53:31.444Z,21.80
2019-02-12T07:56:09.204Z,21.70
2019-02-12T07:58:44.481Z,22.50
2019-02-12T08:01:25.280Z,23.20
2019-02-12T08:04:15.286Z,23.80
2019-02-12T08:07:01.915Z,24.40
2019-02-12T08:09:54.553Z,24.50
2019-02-12T08:12:44.466Z,23.80
2019-02-12T08:15:31.405Z,23.20
2019-02-12T08:18:12.059Z,22.80
2019-02-12T08:21:04.859Z,22.60
2019-02-12T08:23:48.710Z,22.30
2019-02-12T08:26:23.773Z,22.10
2019-02-12T08:29:07.551Z,21.90
2019-02-12T08:31:58.574Z,21.80
2019-02-12T08:34:39.133Z,21.70
2019-02-12T08:37:23.100Z,21.50
2019-02-12T08:40:12.925Z,21.40
2019-02-12T08:42:53.379Z,21.40
2019-02-12T08:45:42.967Z,21.30
2019-02-12T08:48:35.505Z,21.20
2019-02-12T08:51:31.133Z,21.10
2019-02-12T08:54:21.228Z,21.50
2019-02-12T08:57:14.237Z,22.40
2019-02-12T08:59:52.473Z,23.10
2019-02-12T09:02:52.702Z,23.70
2019-02-12T09:05:36.446Z,24.10
2019-02-12T09:08:29.314Z,23.50
2019-02-12T09:11:18.977Z,22.90
2019-02-12T09:13:59.331Z,22.50
2019-02-12T09:16:56.598Z,22.10
2019-02-12T09:19:40.344Z,21.90
2019-02-12T09:22:23.956Z,21.70
2019-02-12T09:25:01.487Z,21.50
2019-02-12T09:27:36.554Z,21.40
2019-02-12T09:30:26.311Z,21.30
2019-02-12T09:33:08.058Z,22.10
2019-02-12T09:36:14.797Z,22.90
2019-02-12T09:39:05.666Z,23.50
2019-02-12T09:41:43.319Z,24.10
2019-02-12T09:44:30.180Z,23.70
2019-02-12T09:47:07.949Z,23.20
2019-02-12T09:50:00.612Z,22.60
2019-02-12T09:52:41.071Z,22.30
2019-02-12T09:55:22.164Z,22.00
2019-02-12T09:58:24.326Z,21.80
2019-02-12T10:00:59.218Z,21.60
2019-02-12T10:03:42.776Z,21.50
2019-02-12T10:06:21.690Z,21.30
2019-02-12T10:09:20.567Z,22.00
2019-02-12T10:12:20.812Z,22.80
2019-02-12T10:14:55.727Z,23.50
2019-02-12T10:17:57.770Z,24.00
2019-02-12T10:20:47.646Z,23.80
2019-02-12T10:23:37.256Z,23.10
2019-02-12T10:26:12.134Z,22.60
2019-02-12T10:29:06.706Z,22.20
2019-02-12T10:31:43.529Z,22.00
2019-02-12T10:34:16.330Z,21.80
2019-02-12T10:36:49.027Z,21.60
2019-02-12T10:39:21.415Z,21.40
2019-02-12T10:41:54.068Z,21.30
2019-02-12T10:44:26.709Z,21.20
2019-02-12T10:46:59.081Z,21.10
2019-02-12T10:49:31.590Z,21.20
2019-02-12T10:52:04.164Z,22.00
2019-02-12T10:54:36.973Z,22.70
2019-02-12T10:57:10.555Z,23.30
2019-02-12T10:59:43.221Z,23.70
2019-02-12T11:02:15.589Z,24.00
2019-02-12T11:04:47.969Z,23.40
2019-02-12T11:07:20.326Z,22.80
2019-02-12T11:09:53.045Z,22.40
2019-02-12T11:12:25.441Z,22.10
2019-02-12T11:14:57.834Z,21.90
2019-02-12T11:17:30.322Z,21.70
2019-02-12T11:20:02.994Z,21.50
2019-02-12T11:22:35.765Z,21.30
2019-02-12T11:25:09.817Z,21.20
2019-02-12T11:27:42.163Z,21.20
2019-02-12T11:30:17.848Z,22.00
2019-02-12T11:32:50.225Z,22.80
2019-02-12T11:35:22.947Z,23.40
2019-02-12T11:37:55.855Z,23.80
2019-02-12T11:40:29.219Z,24.00
2019-02-12T11:43:01.592Z,23.40
2019-02-12T11:45:34.071Z,22.80
2019-02-12T11:48:07.556Z,22.40
2019-02-12T11:50:39.925Z,22.10
2019-02-12T11:53:12.486Z,21.90
2019-02-12T11:55:44.857Z,21.70
2019-02-12T11:58:17.572Z,21.50
2019-02-12T12:00:51.498Z,21.40
2019-02-12T12:03:23.973Z,21.30
2019-02-12T12:05:56.366Z,21.10
2019-02-12T12:08:28.715Z,21.30
2019-02-12T12:11:01.322Z,22.10
2019-02-12T12:13:33.809Z,22.80
2019-02-12T12:16:06.262Z,23.40
2019-02-12T12:18:39.046Z,23.80
2019-02-12T12:21:11.711Z,24.10
2019-02-12T12:23:44.065Z,23.50
2019-02-12T12:26:16.439Z,22.90
2019-02-12T12:28:49.796Z,22.40
2019-02-12T12:31:22.446Z,22.10
2019-02-12T12:33:54.922Z,21.90
2019-02-12T12:36:27.289Z,21.70
2019-02-12T12:38:59.830Z,22.40
2019-02-12T12:41:32.336Z,23.10
2019-02-12T12:44:05.018Z,23.70
2019-02-12T12:46:37.375Z,24.20
2019-02-12T12:49:09.850Z,23.90
2019-02-12T12:51:42.343Z,23.30
2019-02-12T12:54:14.806Z,22.80
2019-02-12T12:56:47.177Z,22.40
2019-02-12T12:59:19.730Z,22.10
2019-02-12T13:01:53.064Z,21.90
2019-02-12T13:04:25.557Z,21.80
2019-02-12T13:06:58.019Z,22.40
2019-02-12T13:09:30.361Z,23.20
2019-02-12T13:12:02.748Z,23.80
2019-02-12T13:14:35.206Z,24.20
2019-02-12T13:17:07.581Z,23.80
2019-02-12T13:19:40.043Z,23.30
2019-02-12T13:22:12.405Z,22.80
2019-02-12T13:24:45.209Z,22.40
2019-02-12T13:27:17.597Z,22.20
2019-02-12T13:29:49.946Z,22.00
2019-02-12T13:32:22.605Z,21.80
2019-02-12T13:34:55.081Z,21.70
2019-02-12T13:37:27.470Z,21.50
2019-02-12T13:40:00.287Z,21.40
2019-02-12T13:42:34.042Z,21.20
2019-02-12T13:45:11.461Z,21.30
2019-02-12T13:47:44.137Z,22.00
2019-02-12T13:50:16.620Z,22.80
2019-02-12T13:52:48.993Z,23.40
2019-02-12T13:55:22.660Z,23.90
2019-02-12T13:57:55.187Z,24.00
2019-02-12T14:00:27.821Z,23.40
2019-02-12T14:03:00.398Z,22.80
2019-02-12T14:05:32.813Z,22.80
2019-02-12T14:08:05.418Z,23.50
2019-02-12T14:10:37.839Z,24.10
2019-02-12T14:13:10.324Z,24.60
2019-02-12T14:15:42.682Z,24.90
2019-02-12T14:18:15.077Z,25.20
2019-02-12T14:20:48.420Z,25.40
2019-02-12T14:23:20.783Z,25.70
2019-02-12T14:25:53.150Z,25.80
2019-02-12T14:28:25.760Z,25.10
2019-02-12T14:30:58.111Z,24.40
2019-02-12T14:33:30.694Z,23.90
2019-02-12T14:36:03.094Z,23.40
2019-02-12T14:38:35.498Z,23.10
2019-02-12T14:41:08.207Z,23.70
2019-02-12T14:43:40.572Z,24.40
2019-02-12T14:46:13.027Z,25.00
2019-02-12T14:48:45.414Z,25.40
2019-02-12T14:51:17.757Z,25.80
2019-02-12T14:53:50.120Z,26.00
2019-02-12T14:56:22.594Z,26.30
2019-02-12T14:58:54.981Z,26.50
2019-02-12T15:01:27.481Z,26.70
2019-02-12T15:04:00.110Z,26.90
2019-02-12T15:06:32.550Z,27.10
2019-02-12T15:09:05.575Z,27.30
2019-02-12T15:11:39.339Z,27.40
2019-02-12T15:14:12.728Z,27.60
2019-02-12T15:16:45.129Z,27.70
2019-02-12T15:19:18.601Z,27.80
2019-02-12T15:21:50.982Z,27.60
2019-02-12T15:24:23.405Z,26.80
2019-02-12T15:26:55.838Z,26.20
2019-02-12T15:29:28.238Z,25.70
2019-02-12T15:32:00.713Z,25.30
2019-02-12T15:34:33.575Z,25.00
2019-02-12T15:37:06.008Z,24.60
2019-02-12T15:39:38.418Z,24.40
2019-02-12T15:42:11.243Z,24.20
2019-02-12T15:44:43.921Z,24.00
2019-02-12T15:47:16.373Z,23.80
2019-02-12T15:49:51.988Z,23.80
2019-02-12T15:52:24.354Z,23.70
2019-02-12T15:54:56.751Z,23.60
2019-02-12T15:57:29.121Z,23.50
2019-02-12T16:00:01.683Z,23.40
2019-02-12T16:02:35.888Z,23.40
2019-02-12T16:05:12.361Z,23.20
2019-02-12T16:07:47.090Z,23.10
2019-02-12T16:10:20.337Z,23.10
2019-02-12T16:12:52.514Z,23.00
2019-02-12T16:15:25.251Z,23.00
2019-02-12T16:17:58.405Z,22.90
2019-02-12T16:20:32.971Z,22.80
2019-02-12T16:23:05.430Z,22.70
2019-02-12T16:25:37.677Z,22.60
2019-02-12T16:28:09.864Z,22.50
2019-02-12T16:30:42.083Z,23.10
2019-02-12T16:33:14.273Z,23.80
2019-02-12T16:35:46.974Z,24.50
2019-02-12T16:38:19.154Z,25.10
2019-02-12T16:40:51.393Z,25.60
2019-02-12T16:43:23.755Z,26.00
2019-02-12T16:46:16.686Z,26.30
2019-02-12T16:48:48.870Z,25.80
2019-02-12T16:51:21.061Z,25.00
2019-02-12T16:53:53.247Z,24.60
2019-02-12T16:56:25.733Z,24.10
2019-02-12T16:59:03.419Z,23.80
2019-02-12T17:01:31.955Z,23.60
2019-02-12T17:04:05.012Z,23.50
2019-02-12T17:06:37.493Z,23.40
2019-02-12T17:09:10.057Z,23.30
2019-02-12T17:11:42.568Z,23.20
2019-02-12T17:14:14.882Z,23.00
2019-02-12T17:16:47.178Z,22.90
2019-02-12T17:19:19.433Z,22.80
2019-02-12T17:21:51.837Z,22.70
2019-02-12T17:24:23.996Z,22.60
2019-02-12T17:26:56.434Z,22.70
2019-02-12T17:29:28.785Z,23.50
2019-02-12T17:32:01.305Z,24.20
2019-02-12T17:34:33.998Z,24.60
2019-02-12T17:37:06.679Z,24.10
2019-02-12T17:39:39.051Z,23.70
2019-02-12T17:42:11.443Z,23.30
2019-02-12T17:44:44.168Z,23.10
2019-02-12T17:47:16.556Z,22.90
2019-02-12T17:49:49.126Z,22.80
2019-02-12T17:52:21.594Z,22.70
2019-02-12T17:54:53.977Z,22.60
2019-02-12T17:57:26.359Z,22.50
2019-02-12T17:59:58.835Z,22.40
2019-02-12T18:02:31.205Z,22.30
2019-02-12T18:05:03.926Z,22.20
2019-02-12T18:07:36.571Z,22.10
2019-02-12T18:10:10.922Z,22.10
2019-02-12T18:12:43.416Z,22.00
2019-02-12T18:15:16.321Z,21.90
2019-02-12T18:17:48.737Z,21.90
2019-02-12T18:20:26.312Z,21.80
2019-02-12T18:22:54.905Z,21.80
2019-02-12T18:25:27.306Z,21.70
2019-02-12T18:27:59.731Z,21.70
2019-02-12T18:30:32.243Z,21.60
2019-02-12T18:33:04.638Z,21.60
2019-02-12T18:35:37.005Z,21.50
2019-02-12T18:38:09.621Z,21.50
2019-02-12T18:40:43.423Z,21.40
2019-02-12T18:43:15.828Z,21.40
2019-02-12T18:45:48.394Z,21.40
2019-02-12T18:48:20.818Z,21.30
2019-02-12T18:50:53.181Z,21.30
2019-02-12T18:53:25.678Z,21.30
2019-02-12T18:55:58.201Z,21.30
2019-02-12T18:58:30.678Z,21.20
2019-02-12T19:01:03.071Z,21.20
2019-02-12T19:03:35.444Z,21.10
2019-02-12T19:06:08.249Z,21.10
2019-02-12T19:08:41.642Z,21.10
2019-02-12T19:11:14.184Z,21.10
2019-02-12T19:13:46.686Z,21.00
2019-02-12T19:16:19.151Z,21.00
2019-02-12T19:18:51.629Z,21.00
2019-02-12T19:21:25.215Z,21.00
2019-02-12T19:23:57.981Z,21.00
2019-02-12T19:26:30.744Z,20.90
2019-02-12T19:29:05.324Z,20.90
2019-02-12T19:31:37.791Z,20.90
2019-02-12T19:34:10.167Z,20.90
2019-02-12T19:36:42.538Z,20.80
2019-02-12T19:39:15.142Z,20.90
2019-02-12T19:41:47.609Z,20.80
2019-02-12T19:44:20.125Z,20.80
2019-02-12T19:46:52.669Z,20.80
2019-02-12T19:49:25.066Z,20.80
2019-02-12T19:51:57.438Z,20.80
2019-02-12T19:54:29.843Z,20.70
2019-02-12T19:57:02.275Z,20.70
2019-02-12T19:59:34.688Z,20.70
2019-02-12T20:02:07.381Z,20.70
2019-02-12T20:04:39.762Z,20.70
2019-02-12T20:07:12.332Z,20.70
2019-02-12T20:09:45.036Z,20.70
2019-02-12T20:12:17.398Z,20.60
2019-02-12T20:14:49.767Z,20.60
2019-02-12T20:17:22.142Z,20.60
2019-02-12T20:19:54.957Z,20.60
2019-02-12T20:22:27.361Z,20.60
2019-02-12T20:24:59.767Z,20.60
2019-02-12T20:27:35.990Z,20.60
2019-02-12T20:30:16.745Z,20.60
2019-02-12T20:32:49.109Z,20.50
2019-02-12T20:35:22.925Z,20.50
2019-02-12T20:37:55.409Z,20.50
2019-02-12T20:40:28.205Z,20.50
2019-02-12T20:43:00.571Z,20.50
2019-02-12T20:45:33.169Z,20.50
2019-02-12T20:48:05.820Z,20.50
2019-02-12T20:50:38.739Z,20.50
2019-02-12T20:53:11.301Z,20.50
2019-02-12T20:55:43.762Z,20.50
2019-02-12T20:58:16.134Z,20.50
2019-02-12T21:00:48.641Z,20.40
2019-02-12T21:03:21.107Z,20.40
2019-02-12T21:05:53.532Z,20.40
2019-02-12T21:08:26.110Z,20.40
2019-02-12T21:10:58.847Z,20.40
2019-02-12T21:13:31.235Z,20.40
2019-02-12T21:16:03.701Z,20.30
2019-02-12T21:18:36.175Z,20.30
2019-02-12T21:21:08.536Z,20.30
2019-02-12T21:23:41.908Z,20.30
2019-02-12T21:26:14.500Z,20.30
2019-02-12T21:28:46.968Z,20.30
2019-02-12T21:31:19.391Z,20.30
2019-02-12T21:33:51.778Z,20.30
2019-02-12T21:36:24.178Z,20.30
2019-02-12T21:38:56.665Z,20.30
2019-02-12T21:41:29.334Z,20.30
2019-02-12T21:44:01.774Z,20.30
2019-02-12T21:46:34.167Z,20.20
2019-02-12T21:49:06.816Z,20.20
2019-02-12T21:51:39.227Z,20.20
2019-02-12T21:54:11.593Z,20.20
2019-02-12T21:56:44.246Z,20.20
2019-02-12T21:59:16.704Z,20.20
2019-02-12T22:01:49.403Z,20.20
2019-02-12T22:04:21.769Z,20.10
2019-02-12T22:06:54.177Z,20.10
2019-02-12T22:09:27.145Z,20.20
2019-02-12T22:11:59.910Z,20.10
2019-02-12T22:14:32.295Z,20.10
2019-02-12T22:17:05.519Z,20.10
2019-02-12T22:19:39.069Z,20.10
2019-02-12T22:22:11.487Z,20.10
2019-02-12T22:24:43.845Z,20.10
2019-02-12T22:27:16.332Z,20.10
2019-02-12T22:29:48.826Z,20.00
2019-02-12T22:32:21.328Z,20.00
2019-02-12T22:34:53.697Z,20.00
2019-02-12T22:37:26.081Z,20.00
2019-02-12T22:39:58.483Z,20.00
2019-02-12T22:42:31.185Z,20.00
2019-02-12T22:45:03.661Z,20.00
2019-02-12T22:47:36.044Z,20.00
2019-02-12T22:50:11.547Z,20.00
2019-02-12T22:52:44.047Z,19.90
2019-02-12T22:55:16.645Z,19.90
2019-02-12T22:57:49.768Z,19.90
2019-02-12T23:00:32.159Z,19.90
2019-02-12T23:03:06.021Z,19.90
2019-02-12T23:05:38.689Z,19.90
2019-02-12T23:08:11.194Z,19.90
2019-02-12T23:10:43.923Z,19.90
2019-02-12T23:13:16.588Z,19.90
2019-02-12T23:15:49.093Z,19.90
2019-02-12T23:18:22.316Z,19.90
2019-02-12T23:20:54.695Z,19.90
2019-02-12T23:23:27.099Z,19.80
2019-02-12T23:25:59.601Z,19.80
2019-02-12T23:28:32.049Z,19.80
2019-02-12T23:31:04.456Z,19.80
2019-02-12T23:33:37.064Z,19.80
2019-02-12T23:36:09.483Z,19.80
2019-02-12T23:38:42.201Z,19.80
2019-02-12T23:41:14.605Z,19.80
2019-02-12T23:43:47.211Z,19.80
2019-02-12T23:46:19.603Z,19.80
2019-02-12T23:48:53.557Z,19.70
2019-02-12T23:51:26.211Z,19.70
2019-02-12T23:53:58.752Z,19.80
2019-02-12T23:56:31.237Z,19.80
2019-02-12T23:59:03.625Z,19.70
